Time;durP1;ratioP1;P1;durP2;ratioP2;P2;SDS_P1;SDS_P2;PMS_P1;PMS_P2;Temp;Humidity;BMP_temperature;BMP_pressure;BME280_temperature;BME280_humidity;BME280_pressure;Samples;Min_cycle;Max_cycle;Signal;HPM_P1;HPM_P2
2022/02/22 00:01:11;;;;;;;;;0.00;0.00;;;;;;;;2;261075395;261075395;-83
2022/02/22 00:10:38;;;;;;;;;0.00;0.00;;;;;;;;2;288084140;288084140;-83
2022/02/22 00:18:54;;;;;;;;;0.00;0.00;;;;;;;;2;261080822;261080822;-86
2022/02/22 00:28:21;;;;;;;;;0.00;0.00;;;;;;;;2;288084384;288084384;-83
2022/02/22 00:36:37;;;;;;;;;0.00;0.00;;;;;;;;2;261076290;261076290;-83
2022/02/22 00:49:24;;;;;;;;;0.00;0.00;;;;;;;;2;288084549;288084549;-82
2022/02/22 00:57:41;;;;;;;;;0.00;0.00;;;;;;;;2;261075785;261075785;-82
2022/02/22 01:07:16;;;;;;;;;0.00;0.00;;;;;;;;2;288082209;288082209;-82
2022/02/22 01:15:31;;;;;;;;;0.00;0.00;;;;;;;;2;261075213;261075213;-82
2022/02/22 01:24:59;;;;;;;;;0.00;0.00;;;;;;;;2;288084650;288084650;-82
2022/02/22 01:33:15;;;;;;;;;0.00;0.00;;;;;;;;2;261075814;261075814;-83
2022/02/22 01:42:42;;;;;;;;;0.00;0.00;;;;;;;;2;288081999;288081999;-84
2022/02/22 01:50:57;;;;;;;;;0.00;0.00;;;;;;;;2;261075583;261075583;-85
2022/02/22 02:00:27;;;;;;;;;0.00;0.00;;;;;;;;2;288081836;288081836;-83
2022/02/22 02:08:42;;;;;;;;;0.00;0.00;;;;;;;;2;261075210;261075210;-84
2022/02/22 02:18:09;;;;;;;;;0.00;0.00;;;;;;;;2;288084440;288084440;-84
2022/02/22 02:26:25;;;;;;;;;0.00;0.00;;;;;;;;2;261076324;261076324;-82
2022/02/22 02:35:52;;;;;;;;;0.00;0.00;;;;;;;;2;288082441;288082441;-82
2022/02/22 02:44:11;;;;;;;;;0.00;0.00;;;;;;;;2;261075704;261075704;-82
2022/02/22 02:53:39;;;;;;;;;0.00;0.00;;;;;;;;2;288084706;288084706;-82
2022/02/22 03:01:54;;;;;;;;;0.00;0.00;;;;;;;;2;261076228;261076228;-82
2022/02/22 03:11:22;;;;;;;;;0.00;0.00;;;;;;;;2;288082857;288082857;-81
2022/02/22 03:19:37;;;;;;;;;0.00;0.00;;;;;;;;2;261078382;261078382;-82
2022/02/22 03:29:05;;;;;;;;;0.00;0.00;;;;;;;;2;288081591;288081591;-82
2022/02/22 03:37:20;;;;;;;;;0.00;0.00;;;;;;;;2;261075991;261075991;-81
2022/02/22 03:46:48;;;;;;;;;0.00;0.00;;;;;;;;2;288083509;288083509;-84
2022/02/22 03:55:04;;;;;;;;;0.00;0.00;;;;;;;;2;261077874;261077874;-82
2022/02/22 04:04:32;;;;;;;;;0.00;0.00;;;;;;;;2;288082388;288082388;-80
2022/02/22 04:12:48;;;;;;;;;0.00;0.00;;;;;;;;2;261075072;261075072;-82
2022/02/22 04:22:16;;;;;;;;;0.00;0.00;;;;;;;;2;288085119;288085119;-81
2022/02/22 04:30:32;;;;;;;;;0.00;0.00;;;;;;;;2;261075246;261075246;-82
2022/02/22 04:40:01;;;;;;;;;0.00;0.00;;;;;;;;2;288083562;288083562;-81
2022/02/22 04:48:16;;;;;;;;;0.00;0.00;;;;;;;;2;261075885;261075885;-81
2022/02/22 04:57:44;;;;;;;;;0.00;0.00;;;;;;;;2;288082254;288082254;-80
2022/02/22 05:05:59;;;;;;;;;0.00;0.00;;;;;;;;2;261074193;261074193;-81
2022/02/22 05:15:31;;;;;;;;;0.00;0.00;;;;;;;;2;288082256;288082256;-81
2022/02/22 05:23:46;;;;;;;;;0.00;0.00;;;;;;;;2;261076798;261076798;-80
2022/02/22 05:33:14;;;;;;;;;0.00;0.00;;;;;;;;2;288082944;288082944;-80
2022/02/22 05:41:29;;;;;;;;;0.00;0.00;;;;;;;;2;261074721;261074721;-82
2022/02/22 05:50:57;;;;;;;;;0.00;0.00;;;;;;;;2;288082892;288082892;-81
2022/02/22 05:59:14;;;;;;;;;0.00;0.00;;;;;;;;2;261078464;261078464;-82
2022/02/22 06:08:42;;;;;;;;;0.00;0.00;;;;;;;;2;288084942;288084942;-82
2022/02/22 06:16:57;;;;;;;;;0.00;0.00;;;;;;;;2;261075550;261075550;-82
2022/02/22 06:26:25;;;;;;;;;0.00;0.00;;;;;;;;2;288084167;288084167;-82
2022/02/22 06:34:42;;;;;;;;;0.00;0.00;;;;;;;;2;261077641;261077641;-83
2022/02/22 06:44:09;;;;;;;;;0.00;0.00;;;;;;;;2;288084475;288084475;-83
2022/02/22 06:52:25;;;;;;;;;0.00;0.00;;;;;;;;2;261075311;261075311;-84
2022/02/22 07:01:52;;;;;;;;;0.00;0.00;;;;;;;;2;288085956;288085956;-79
2022/02/22 07:10:08;;;;;;;;;0.00;0.00;;;;;;;;2;261076459;261076459;-79
2022/02/22 07:19:36;;;;;;;;;0.00;0.00;;;;;;;;2;288086217;288086217;-79
2022/02/22 07:27:52;;;;;;;;;0.00;0.00;;;;;;;;2;261078823;261078823;-79
2022/02/22 07:37:20;;;;;;;;;0.00;0.00;;;;;;;;2;288085266;288085266;-77
2022/02/22 07:45:35;;;;;;;;;0.00;0.00;;;;;;;;2;261077922;261077922;-79
2022/02/22 07:55:04;;;;;;;;;0.00;0.00;;;;;;;;2;288082861;288082861;-79
2022/02/22 08:03:20;;;;;;;;;0.00;0.00;;;;;;;;2;261075334;261075334;-80
2022/02/22 08:12:47;;;;;;;;;0.00;0.00;;;;;;;;2;288083243;288083243;-79
2022/02/22 08:21:03;;;;;;;;;0.00;0.00;;;;;;;;2;261074476;261074476;-80
2022/02/22 08:30:31;;;;;;;;;0.00;0.00;;;;;;;;2;288085706;288085706;-81
2022/02/22 08:38:46;;;;;;;;;0.00;0.00;;;;;;;;2;261078336;261078336;-80
2022/02/22 08:48:15;;;;;;;;;0.00;0.00;;;;;;;;2;288083757;288083757;-80
2022/02/22 08:56:30;;;;;;;;;0.00;0.00;;;;;;;;2;261074685;261074685;-81
2022/02/22 09:05:59;;;;;;;;;0.00;0.00;;;;;;;;2;288083403;288083403;-79
2022/02/22 09:14:14;;;;;;;;;0.00;0.00;;;;;;;;2;261077409;261077409;-80
2022/02/22 09:23:42;;;;;;;;;0.00;0.00;;;;;;;;2;288084624;288084624;-80
2022/02/22 09:31:57;;;;;;;;;0.00;0.00;;;;;;;;2;261081598;261081598;-80
2022/02/22 09:41:25;;;;;;;;;0.00;0.00;;;;;;;;2;288082467;288082467;-80
2022/02/22 09:49:40;;;;;;;;;0.00;0.00;;;;;;;;2;261079371;261079371;-80
2022/02/22 09:59:08;;;;;;;;;0.00;0.00;;;;;;;;2;288085083;288085083;-80
2022/02/22 10:07:24;;;;;;;;;0.00;0.00;;;;;;;;2;261076270;261076270;-80
2022/02/22 10:16:53;;;;;;;;;0.00;0.00;;;;;;;;2;288085213;288085213;-80
2022/02/22 10:25:10;;;;;;;;;0.00;0.00;;;;;;;;2;261076751;261076751;-80
2022/02/22 10:34:37;;;;;;;;;0.00;0.00;;;;;;;;2;288082745;288082745;-80
2022/02/22 10:42:53;;;;;;;;;0.00;0.00;;;;;;;;2;261078646;261078646;-80
2022/02/22 10:52:28;;;;;;;;;0.00;0.00;;;;;;;;2;288083169;288083169;-80
2022/02/22 11:00:44;;;;;;;;;0.00;0.00;;;;;;;;2;261079127;261079127;-80
2022/02/22 11:10:11;;;;;;;;;0.00;0.00;;;;;;;;2;288082970;288082970;-80
2022/02/22 11:18:27;;;;;;;;;0.00;0.00;;;;;;;;2;261079480;261079480;-80
2022/02/22 11:28:02;;;;;;;;;0.00;0.00;;;;;;;;2;288084435;288084435;-80
2022/02/22 11:36:24;;;;;;;;;0.00;0.00;;;;;;;;2;261075081;261075081;-76
2022/02/22 11:45:52;;;;;;;;;0.00;0.00;;;;;;;;2;288084349;288084349;-76
2022/02/22 11:54:12;;;;;;;;;0.00;0.00;;;;;;;;2;261078619;261078619;-76
2022/02/22 12:03:41;;;;;;;;;0.00;0.00;;;;;;;;2;288084362;288084362;-76
2022/02/22 12:12:03;;;;;;;;;0.00;0.00;;;;;;;;2;261079425;261079425;-75
2022/02/22 12:21:31;;;;;;;;;0.00;0.00;;;;;;;;2;288082558;288082558;-75
2022/02/22 12:29:51;;;;;;;;;0.00;0.00;;;;;;;;2;261074284;261074284;-75
2022/02/22 12:39:19;;;;;;;;;0.00;0.00;;;;;;;;2;288084457;288084457;-75
2022/02/22 12:47:36;;;;;;;;;0.00;0.00;;;;;;;;2;261076468;261076468;-76
2022/02/22 12:57:05;;;;;;;;;0.00;0.00;;;;;;;;2;288085001;288085001;-75
2022/02/22 13:05:20;;;;;;;;;0.00;0.00;;;;;;;;2;261077935;261077935;-76
2022/02/22 13:14:49;;;;;;;;;0.00;0.00;;;;;;;;2;288083932;288083932;-75
2022/02/22 13:23:09;;;;;;;;;0.00;0.00;;;;;;;;2;261077099;261077099;-75
2022/02/22 13:32:42;;;;;;;;;0.00;0.00;;;;;;;;2;288087133;288087133;-76
2022/02/22 13:41:05;;;;;;;;;0.00;0.00;;;;;;;;2;261077458;261077458;-75
2022/02/22 13:50:33;;;;;;;;;0.00;0.00;;;;;;;;2;288084287;288084287;-75
2022/02/22 13:58:48;;;;;;;;;0.00;0.00;;;;;;;;2;261078151;261078151;-75
2022/02/22 14:08:16;;;;;;;;;0.00;0.00;;;;;;;;2;288087023;288087023;-75
2022/02/22 14:16:32;;;;;;;;;0.00;0.00;;;;;;;;2;261078602;261078602;-75
2022/02/22 14:26:01;;;;;;;;;0.00;0.00;;;;;;;;2;288087045;288087045;-76
2022/02/22 14:34:17;;;;;;;;;0.00;0.00;;;;;;;;2;261077486;261077486;-75
2022/02/22 14:43:44;;;;;;;;;0.00;0.00;;;;;;;;2;288083463;288083463;-76
2022/02/22 14:52:00;;;;;;;;;0.00;0.00;;;;;;;;2;261079366;261079366;-75
2022/02/22 15:01:28;;;;;;;;;0.00;0.00;;;;;;;;2;288085314;288085314;-75
2022/02/22 15:09:43;;;;;;;;;0.00;0.00;;;;;;;;2;261077683;261077683;-75
2022/02/22 15:19:11;;;;;;;;;0.00;0.00;;;;;;;;2;288084805;288084805;-75
2022/02/22 15:27:27;;;;;;;;;0.00;0.00;;;;;;;;2;261078495;261078495;-75
2022/02/22 15:36:54;;;;;;;;;0.00;0.00;;;;;;;;2;288086452;288086452;-75
2022/02/22 15:45:10;;;;;;;;;0.00;0.00;;;;;;;;2;261079626;261079626;-75
2022/02/22 15:54:37;;;;;;;;;0.00;0.00;;;;;;;;2;288084521;288084521;-75
2022/02/22 16:02:54;;;;;;;;;0.00;0.00;;;;;;;;2;261079065;261079065;-75
2022/02/22 16:12:21;;;;;;;;;0.00;0.00;;;;;;;;2;288086940;288086940;-76
2022/02/22 16:32:36;;;;;;;;;0.00;0.00;;;;;;;;175544;28;261077098;-74
2022/02/22 16:42:03;;;;;;;;;0.00;0.00;;;;;;;;2;288084974;288084974;-74
2022/02/22 16:50:19;;;;;;;;;0.00;0.00;;;;;;;;2;261078852;261078852;-74
2022/02/22 16:59:46;;;;;;;;;0.00;0.00;;;;;;;;2;288081693;288081693;-74
2022/02/22 17:08:02;;;;;;;;;0.00;0.00;;;;;;;;2;261076721;261076721;-74
2022/02/22 17:17:29;;;;;;;;;0.00;0.00;;;;;;;;2;288085440;288085440;-74
2022/02/22 17:25:45;;;;;;;;;0.00;0.00;;;;;;;;2;261076100;261076100;-74
2022/02/22 17:35:12;;;;;;;;;0.00;0.00;;;;;;;;2;288084152;288084152;-74
2022/02/22 17:43:28;;;;;;;;;0.00;0.00;;;;;;;;2;261082876;261082876;-76
2022/02/22 17:52:56;;;;;;;;;0.00;0.00;;;;;;;;2;288088962;288088962;-77
2022/02/22 18:01:18;;;;;;;;;0.00;0.00;;;;;;;;2;261079534;261079534;-76
2022/02/22 18:10:45;;;;;;;;;0.00;0.00;;;;;;;;2;288084907;288084907;-77
2022/02/22 18:19:01;;;;;;;;;0.00;0.00;;;;;;;;2;261079219;261079219;-77
2022/02/22 18:28:29;;;;;;;;;0.00;0.00;;;;;;;;2;288084206;288084206;-77
2022/02/22 18:36:44;;;;;;;;;0.00;0.00;;;;;;;;2;261083091;261083091;-78
2022/02/22 18:46:12;;;;;;;;;0.00;0.00;;;;;;;;2;288086035;288086035;-78
2022/02/22 18:54:27;;;;;;;;;0.00;0.00;;;;;;;;2;261078070;261078070;-80
2022/02/22 19:03:55;;;;;;;;;0.00;0.00;;;;;;;;2;288089498;288089498;-77
2022/02/22 19:12:13;;;;;;;;;0.00;0.00;;;;;;;;2;261079177;261079177;-82
2022/02/22 19:21:41;;;;;;;;;0.00;0.00;;;;;;;;2;288082910;288082910;-82
2022/02/22 19:30:09;;;;;;;;;0.00;0.00;;;;;;;;2;261082038;261082038;-83
2022/02/22 20:44:43;;;;;;;;;0.00;0.00;;;;;;;;2;261117341;261117341;-80
2022/02/22 20:54:10;;;;;;;;;0.00;0.00;;;;;;;;2;288088767;288088767;-80
2022/02/22 21:02:26;;;;;;;;;0.00;0.00;;;;;;;;2;261078640;261078640;-79
2022/02/22 21:11:54;;;;;;;;;0.00;0.00;;;;;;;;2;288088241;288088241;-77
2022/02/22 21:20:09;;;;;;;;;0.00;0.00;;;;;;;;2;261078995;261078995;-76
2022/02/22 21:29:37;;;;;;;;;0.00;0.00;;;;;;;;2;288088123;288088123;-76
2022/02/22 21:37:53;;;;;;;;;0.00;0.00;;;;;;;;2;261076417;261076417;-76
2022/02/22 21:47:20;;;;;;;;;0.00;0.00;;;;;;;;2;288087134;288087134;-77
2022/02/22 21:55:40;;;;;;;;;0.00;0.00;;;;;;;;2;261077540;261077540;-77
2022/02/22 22:05:08;;;;;;;;;0.00;0.00;;;;;;;;2;288084517;288084517;-77
2022/02/22 22:13:24;;;;;;;;;0.00;0.00;;;;;;;;2;261074151;261074151;-78
2022/02/22 22:22:51;;;;;;;;;0.00;0.00;;;;;;;;2;288085958;288085958;-80
2022/02/22 22:31:07;;;;;;;;;0.00;0.00;;;;;;;;2;261076138;261076138;-79
2022/02/22 22:40:34;;;;;;;;;0.00;0.00;;;;;;;;2;288082945;288082945;-78
2022/02/22 22:48:51;;;;;;;;;0.00;0.00;;;;;;;;2;261077670;261077670;-79
2022/02/22 22:58:18;;;;;;;;;0.00;0.00;;;;;;;;2;288085364;288085364;-80
2022/02/22 23:16:20;;;;;;;;;0.00;0.00;;;;;;;;2;288086093;288086093;-79
2022/02/22 23:24:36;;;;;;;;;0.00;0.00;;;;;;;;2;261076718;261076718;-80
2022/02/22 23:34:04;;;;;;;;;0.00;0.00;;;;;;;;2;288084486;288084486;-80
2022/02/22 23:42:19;;;;;;;;;0.00;0.00;;;;;;;;2;261078084;261078084;-80
2022/02/22 23:51:47;;;;;;;;;0.00;0.00;;;;;;;;2;288082821;288082821;-80
